createdAt,value
2019-02-07T00:01:25.486Z,-0.36
2019-02-07T00:03:53.468Z,-0.47
2019-02-07T00:06:21.940Z,-0.52
2019-02-07T00:08:49.965Z,-0.51
2019-02-07T00:11:17.986Z,-0.44
2019-02-07T00:13:45.935Z,-0.54
2019-02-07T00:16:14.010Z,-0.64
2019-02-07T00:18:42.264Z,-0.71
2019-02-07T00:21:10.276Z,-0.74
2019-02-07T00:23:38.154Z,-0.76
2019-02-07T00:26:06.169Z,-0.76
2019-02-07T00:28:34.154Z,-0.72
2019-02-07T00:31:02.284Z,-0.72
2019-02-07T00:33:30.236Z,-0.72
2019-02-07T00:35:58.382Z,-0.71
2019-02-07T00:38:26.370Z,-0.72
2019-02-07T00:40:54.164Z,-0.69
2019-02-07T00:43:22.083Z,-0.63
2019-02-07T00:45:50.075Z,-0.62
2019-02-07T00:48:18.087Z,-0.66
2019-02-07T00:50:47.085Z,-0.62
2019-02-07T00:53:14.943Z,-0.72
2019-02-07T00:55:43.523Z,-0.76
2019-02-07T00:58:11.506Z,-0.79
2019-02-07T01:00:39.528Z,-0.86
2019-02-07T01:03:07.509Z,-0.85
2019-02-07T01:05:35.710Z,-0.76
2019-02-07T01:08:04.525Z,-0.72
2019-02-07T01:10:32.626Z,-0.69
2019-02-07T01:13:00.616Z,-0.76
2019-02-07T01:15:28.918Z,-0.79
2019-02-07T01:17:56.830Z,-0.83
2019-02-07T01:20:24.975Z,-0.80
2019-02-07T01:22:53.649Z,-0.81
2019-02-07T01:25:21.640Z,-0.92
2019-02-07T01:27:49.827Z,-0.92
2019-02-07T01:30:19.951Z,-0.99
2019-02-07T01:32:48.128Z,-0.98
2019-02-07T01:35:16.154Z,-0.94
2019-02-07T01:37:45.536Z,-0.92
2019-02-07T01:40:15.682Z,-0.90
2019-02-07T01:42:43.690Z,-0.96
2019-02-07T01:45:14.185Z,-1.00
2019-02-07T01:47:42.220Z,-0.93
2019-02-07T01:50:12.008Z,-0.84
2019-02-07T01:52:40.008Z,-0.78
2019-02-07T01:55:08.350Z,-0.76
2019-02-07T01:57:36.342Z,-0.72
2019-02-07T02:00:07.235Z,-0.70
2019-02-07T02:02:35.128Z,-0.69
2019-02-07T02:05:03.651Z,-0.67
2019-02-07T02:07:31.734Z,-0.67
2019-02-07T02:10:00.323Z,-0.69
2019-02-07T02:12:28.459Z,-0.70
2019-02-07T02:14:56.333Z,-0.72
2019-02-07T02:17:24.309Z,-0.74
2019-02-07T02:19:52.327Z,-0.77
2019-02-07T02:22:20.198Z,-0.78
2019-02-07T02:24:48.212Z,-0.82
2019-02-07T02:27:16.585Z,-0.84
2019-02-07T02:29:44.760Z,-0.85
2019-02-07T02:32:13.644Z,-0.84
2019-02-07T02:34:41.620Z,-0.88
2019-02-07T02:37:09.593Z,-0.93
2019-02-07T02:39:37.457Z,-1.12
2019-02-07T02:42:05.505Z,-1.17
2019-02-07T02:44:33.900Z,-1.25
2019-02-07T02:47:01.870Z,-1.45
2019-02-07T02:49:29.933Z,-1.41
2019-02-07T02:51:57.896Z,-1.36
2019-02-07T02:54:47.873Z,-1.44
2019-02-07T02:57:15.873Z,-1.53
2019-02-07T02:59:43.746Z,-1.53
2019-02-07T03:02:31.457Z,-1.58
2019-02-07T03:05:28.006Z,-1.75
2019-02-07T03:08:14.475Z,-1.91
2019-02-07T03:11:17.077Z,-2.04
2019-02-07T03:14:02.840Z,-1.94
2019-02-07T03:16:50.325Z,-1.83
2019-02-07T03:19:36.643Z,-1.84
2019-02-07T03:22:23.001Z,-1.85
2019-02-07T03:25:10.944Z,-2.11
2019-02-07T03:28:13.343Z,-2.15
2019-02-07T03:31:09.506Z,-2.11
2019-02-07T03:33:59.600Z,-2.12
2019-02-07T03:36:50.567Z,-2.10
2019-02-07T03:39:43.583Z,-2.24
2019-02-07T03:42:37.314Z,-2.25
2019-02-07T03:45:31.129Z,-2.18
2019-02-07T03:48:24.280Z,-2.16
2019-02-07T03:51:17.658Z,-2.13
2019-02-07T03:54:03.838Z,-2.16
2019-02-07T03:56:51.328Z,-2.23
2019-02-07T03:59:51.185Z,-2.08
2019-02-07T04:02:41.671Z,-1.95
2019-02-07T04:05:34.898Z,-1.86
2019-02-07T04:08:26.784Z,-1.79
2019-02-07T04:11:13.207Z,-1.73
2019-02-07T04:14:00.863Z,-1.89
2019-02-07T04:16:44.732Z,-1.84
2019-02-07T04:19:38.313Z,-1.78
2019-02-07T04:22:23.831Z,-1.77
2019-02-07T04:25:23.085Z,-1.72
2019-02-07T04:28:26.216Z,-1.70
2019-02-07T04:31:25.749Z,-1.68
2019-02-07T04:34:11.416Z,-1.67
2019-02-07T04:36:57.463Z,-1.65
2019-02-07T04:39:43.545Z,-1.63
2019-02-07T04:42:31.108Z,-1.64
2019-02-07T04:45:18.791Z,-1.63
2019-02-07T04:48:21.114Z,-1.64
2019-02-07T04:51:00.560Z,-1.65
2019-02-07T04:53:48.568Z,-1.68
2019-02-07T04:56:26.900Z,-1.81
2019-02-07T04:59:24.072Z,-1.83
2019-02-07T05:02:09.952Z,-2.04
2019-02-07T05:05:06.146Z,-2.30
2019-02-07T05:08:05.607Z,-2.32
2019-02-07T05:10:51.557Z,-2.33
2019-02-07T05:13:51.818Z,-2.27
2019-02-07T05:16:39.637Z,-2.32
2019-02-07T05:19:20.113Z,-2.37
2019-02-07T05:22:16.823Z,-2.40
2019-02-07T05:25:06.334Z,-2.40
2019-02-07T05:27:45.191Z,-2.41
2019-02-07T05:30:48.451Z,-2.42
2019-02-07T05:33:34.488Z,-2.42
2019-02-07T05:36:36.735Z,-2.43
2019-02-07T05:39:15.856Z,-2.47
2019-02-07T05:41:53.282Z,-2.36
2019-02-07T05:44:46.516Z,-2.27
2019-02-07T05:47:48.633Z,-2.24
2019-02-07T05:50:34.322Z,-2.20
2019-02-07T05:53:24.363Z,-2.13
2019-02-07T05:56:20.715Z,-2.28
2019-02-07T05:58:59.417Z,-2.39
2019-02-07T06:01:40.501Z,-2.48
2019-02-07T06:04:24.076Z,-2.50
2019-02-07T06:07:06.868Z,-2.63
2019-02-07T06:09:54.271Z,-2.71
2019-02-07T06:12:57.448Z,-2.78
2019-02-07T06:15:45.031Z,-2.80
2019-02-07T06:18:35.152Z,-2.81
2019-02-07T06:21:10.844Z,-2.75
2019-02-07T06:23:45.238Z,-2.74
2019-02-07T06:26:35.423Z,-2.75
2019-02-07T06:29:21.445Z,-2.71
2019-02-07T06:32:00.173Z,-2.66
2019-02-07T06:34:46.126Z,-2.63
2019-02-07T06:37:30.002Z,-2.57
2019-02-07T06:40:16.291Z,-2.53
2019-02-07T06:43:09.439Z,-2.46
2019-02-07T06:45:55.865Z,-2.45
2019-02-07T06:48:45.985Z,-2.49
2019-02-07T06:51:39.202Z,-2.41
2019-02-07T06:54:23.410Z,-2.34
2019-02-07T06:57:16.749Z,-2.29
2019-02-07T07:00:03.449Z,-2.29
2019-02-07T07:02:49.462Z,-2.22
2019-02-07T07:05:32.146Z,-2.16
2019-02-07T07:08:11.542Z,-2.00
2019-02-07T07:10:54.984Z,-1.90
2019-02-07T07:13:51.404Z,-1.81
2019-02-07T07:16:48.148Z,-1.73
2019-02-07T07:19:38.469Z,-1.72
2019-02-07T07:22:24.844Z,-1.67
2019-02-07T07:25:04.092Z,-1.68
2019-02-07T07:27:43.020Z,-1.65
2019-02-07T07:30:37.964Z,-1.71
2019-02-07T07:33:20.201Z,-1.67
2019-02-07T07:36:06.501Z,-1.63
2019-02-07T07:38:59.727Z,-1.54
2019-02-07T07:41:43.771Z,-1.43
2019-02-07T07:44:29.744Z,-1.38
2019-02-07T07:47:35.690Z,-1.32
2019-02-07T07:50:28.035Z,-1.29
2019-02-07T07:53:18.267Z,-1.06
2019-02-07T07:56:14.376Z,-1.02
2019-02-07T07:58:56.154Z,-0.96
2019-02-07T08:01:42.325Z,-0.95
2019-02-07T08:04:16.172Z,-0.84
2019-02-07T08:07:02.157Z,-0.78
2019-02-07T08:09:47.212Z,-0.74
2019-02-07T08:12:37.137Z,-0.68
2019-02-07T08:15:22.433Z,-0.57
2019-02-07T08:18:12.981Z,-0.48
2019-02-07T08:20:59.217Z,-0.36
2019-02-07T08:23:47.710Z,-0.21
2019-02-07T08:26:38.158Z,-0.05
2019-02-07T08:29:18.484Z,0.03
2019-02-07T08:32:04.818Z,0.21
2019-02-07T08:34:46.401Z,0.32
2019-02-07T08:37:33.997Z,0.46
2019-02-07T08:40:21.438Z,0.53
2019-02-07T08:43:11.836Z,0.60
2019-02-07T08:45:59.411Z,0.72
2019-02-07T08:48:40.150Z,0.82
2019-02-07T08:51:30.526Z,0.93
2019-02-07T08:54:17.647Z,1.02
2019-02-07T08:57:20.098Z,1.13
2019-02-07T09:00:08.905Z,1.23
2019-02-07T09:02:51.759Z,1.33
2019-02-07T09:05:51.039Z,1.41
2019-02-07T09:08:36.455Z,1.52
2019-02-07T09:11:22.410Z,1.59
2019-02-07T09:14:15.657Z,1.66
2019-02-07T09:17:00.003Z,1.70
2019-02-07T09:19:47.312Z,1.82
2019-02-07T09:22:34.791Z,1.92
2019-02-07T09:25:34.419Z,2.00
2019-02-07T09:28:15.055Z,2.06
2019-02-07T09:31:02.695Z,2.13
2019-02-07T09:33:53.177Z,2.14
2019-02-07T09:36:43.410Z,2.22
2019-02-07T09:39:48.672Z,2.27
2019-02-07T09:42:34.901Z,2.34
2019-02-07T09:45:37.034Z,2.38
2019-02-07T09:48:23.047Z,2.47
2019-02-07T09:51:16.136Z,2.52
2019-02-07T09:54:06.393Z,2.54
2019-02-07T09:56:56.579Z,2.63
2019-02-07T09:59:39.883Z,2.68
2019-02-07T10:02:39.697Z,2.75
2019-02-07T10:05:28.728Z,2.87
2019-02-07T10:08:22.237Z,3.00
2019-02-07T10:11:15.594Z,3.09
2019-02-07T10:14:01.621Z,3.24
2019-02-07T10:16:53.854Z,3.32
2019-02-07T10:19:48.073Z,3.51
2019-02-07T10:22:36.269Z,3.71
2019-02-07T10:25:18.091Z,3.90
2019-02-07T10:28:11.318Z,3.96
2019-02-07T10:31:16.870Z,4.05
2019-02-07T10:34:09.127Z,4.08
2019-02-07T10:37:02.410Z,4.18
2019-02-07T10:40:04.891Z,4.20
2019-02-07T10:42:51.116Z,4.25
2019-02-07T10:45:57.131Z,4.33
2019-02-07T10:48:44.729Z,4.34
2019-02-07T10:51:30.906Z,4.34
2019-02-07T10:54:21.062Z,4.38
2019-02-07T10:57:05.055Z,4.33
2019-02-07T10:59:50.924Z,4.36
2019-02-07T11:02:47.845Z,4.42
2019-02-07T11:05:33.878Z,4.37
2019-02-07T11:08:30.505Z,4.43
2019-02-07T11:11:16.875Z,4.55
2019-02-07T11:14:12.227Z,4.65
2019-02-07T11:16:59.682Z,4.76
2019-02-07T11:19:52.951Z,4.85
2019-02-07T11:22:40.251Z,5.04
2019-02-07T11:25:42.412Z,5.16
2019-02-07T11:28:29.847Z,5.23
2019-02-07T11:31:04.244Z,5.22
2019-02-07T11:33:51.896Z,5.28
2019-02-07T11:36:53.800Z,5.42
2019-02-07T11:39:43.564Z,5.41
2019-02-07T11:42:29.802Z,5.28
2019-02-07T11:45:08.326Z,5.30
2019-02-07T11:47:55.817Z,5.23
2019-02-07T11:50:43.155Z,5.23
2019-02-07T11:53:26.028Z,5.31
2019-02-07T11:56:10.324Z,5.33
2019-02-07T11:58:56.456Z,5.49
2019-02-07T12:01:43.818Z,5.51
2019-02-07T12:04:24.851Z,5.66
2019-02-07T12:07:17.748Z,5.96
2019-02-07T12:09:55.133Z,6.07
2019-02-07T12:12:41.231Z,6.16
2019-02-07T12:15:33.806Z,6.13
2019-02-07T12:18:24.360Z,6.11
2019-02-07T12:21:03.335Z,6.10
2019-02-07T12:23:59.729Z,6.10
2019-02-07T12:26:39.073Z,6.19
2019-02-07T12:29:32.662Z,6.20
2019-02-07T12:32:32.224Z,6.20
2019-02-07T12:35:25.840Z,6.25
2019-02-07T12:38:13.327Z,6.36
2019-02-07T12:41:09.616Z,6.38
2019-02-07T12:43:55.804Z,6.28
2019-02-07T12:46:43.045Z,6.24
2019-02-07T12:49:46.167Z,6.16
2019-02-07T12:52:26.073Z,6.13
2019-02-07T12:55:12.326Z,6.09
2019-02-07T12:57:58.855Z,6.10
2019-02-07T13:00:49.054Z,6.03
2019-02-07T13:03:36.369Z,5.93
2019-02-07T13:06:25.338Z,6.00
2019-02-07T13:09:25.197Z,5.94
2019-02-07T13:12:21.592Z,5.98
2019-02-07T13:15:24.513Z,5.99
2019-02-07T13:18:11.024Z,6.06
2019-02-07T13:21:04.480Z,6.10
2019-02-07T13:23:59.296Z,6.21
2019-02-07T13:26:44.329Z,6.28
2019-02-07T13:29:41.263Z,6.49
2019-02-07T13:32:27.373Z,6.79
2019-02-07T13:35:23.956Z,7.01
2019-02-07T13:38:13.904Z,7.25
2019-02-07T13:41:09.498Z,7.45
2019-02-07T13:43:51.587Z,7.52
2019-02-07T13:46:49.241Z,7.63
2019-02-07T13:49:35.120Z,7.65
2019-02-07T13:52:28.370Z,7.61
2019-02-07T13:55:16.927Z,7.44
2019-02-07T13:58:19.373Z,7.45
2019-02-07T14:01:06.805Z,7.31
2019-02-07T14:04:09.935Z,7.40
2019-02-07T14:07:01.991Z,7.27
2019-02-07T14:09:57.313Z,7.19
2019-02-07T14:12:53.818Z,7.08
2019-02-07T14:15:44.127Z,6.87
2019-02-07T14:18:32.739Z,6.76
2019-02-07T14:21:32.292Z,6.63
2019-02-07T14:24:25.550Z,6.60
2019-02-07T14:27:25.047Z,6.22
2019-02-07T14:30:27.786Z,6.20
2019-02-07T14:33:13.297Z,6.10
2019-02-07T14:36:00.693Z,5.75
2019-02-07T14:38:51.065Z,5.72
2019-02-07T14:41:31.797Z,5.57
2019-02-07T14:44:22.085Z,5.59
2019-02-07T14:46:51.024Z,5.52
2019-02-07T14:49:19.694Z,5.37
2019-02-07T14:51:47.981Z,5.32
2019-02-07T14:54:17.498Z,5.11
2019-02-07T14:56:45.496Z,5.31
2019-02-07T14:59:13.886Z,5.14
2019-02-07T15:01:41.859Z,5.11
2019-02-07T15:04:11.852Z,5.13
2019-02-07T15:06:40.568Z,4.96
2019-02-07T15:09:13.908Z,4.81
2019-02-07T15:11:42.454Z,4.89
2019-02-07T15:14:11.373Z,4.74
2019-02-07T15:16:40.096Z,4.70
2019-02-07T15:19:08.252Z,4.69
2019-02-07T15:21:36.591Z,4.56
2019-02-07T15:24:08.287Z,4.55
2019-02-07T15:26:35.470Z,4.54
2019-02-07T15:29:04.283Z,4.49
2019-02-07T15:31:32.275Z,4.44
2019-02-07T15:34:00.421Z,4.49
2019-02-07T15:36:28.429Z,4.37
2019-02-07T15:38:56.371Z,4.40
2019-02-07T15:41:24.662Z,4.34
2019-02-07T15:43:52.586Z,4.35
2019-02-07T15:46:20.665Z,4.17
2019-02-07T15:48:48.671Z,4.11
2019-02-07T15:51:16.761Z,4.05
2019-02-07T15:53:44.543Z,4.00
2019-02-07T15:56:12.892Z,3.94
2019-02-07T15:59:01.909Z,3.93
2019-02-07T16:01:50.541Z,3.98
2019-02-07T16:04:21.906Z,3.92
2019-02-07T16:06:49.859Z,3.86
2019-02-07T16:09:18.148Z,3.90
2019-02-07T16:11:46.212Z,3.82
2019-02-07T16:14:14.235Z,3.80
2019-02-07T16:16:42.225Z,3.77
2019-02-07T16:19:10.240Z,3.75
2019-02-07T16:21:38.420Z,3.76
2019-02-07T16:24:06.898Z,3.72
2019-02-07T16:26:34.754Z,3.70
2019-02-07T16:29:03.565Z,3.63
2019-02-07T16:31:33.313Z,3.67
2019-02-07T16:34:01.180Z,3.62
2019-02-07T16:36:30.235Z,3.55
2019-02-07T16:38:58.521Z,3.57
2019-02-07T16:41:26.577Z,3.65
2019-02-07T16:43:54.537Z,3.60
2019-02-07T16:46:22.585Z,3.70
2019-02-07T16:48:53.503Z,3.73
2019-02-07T16:51:21.510Z,3.78
2019-02-07T16:53:53.341Z,3.76
2019-02-07T16:56:21.535Z,3.65
2019-02-07T16:58:49.610Z,3.65
2019-02-07T17:01:17.609Z,3.75
2019-02-07T17:03:45.513Z,3.66
2019-02-07T17:06:13.636Z,3.74
2019-02-07T17:08:41.937Z,3.72
2019-02-07T17:11:10.595Z,3.76
2019-02-07T17:13:38.557Z,3.63
2019-02-07T17:16:07.159Z,3.64
2019-02-07T17:18:35.308Z,3.68
2019-02-07T17:21:11.547Z,3.62
2019-02-07T17:23:34.261Z,3.62
2019-02-07T17:26:02.300Z,3.65
2019-02-07T17:28:30.383Z,3.69
2019-02-07T17:30:58.408Z,3.75
2019-02-07T17:33:27.192Z,3.66
2019-02-07T17:35:55.876Z,3.69
2019-02-07T17:38:23.758Z,3.64
2019-02-07T17:40:52.173Z,3.71
2019-02-07T17:43:20.704Z,3.73
2019-02-07T17:45:48.785Z,3.75
2019-02-07T17:48:16.725Z,3.70
2019-02-07T17:50:44.861Z,3.75
2019-02-07T17:53:13.092Z,3.74
2019-02-07T17:55:41.075Z,3.70
2019-02-07T17:58:12.710Z,3.71
2019-02-07T18:00:47.935Z,3.76
2019-02-07T18:03:15.905Z,3.70
2019-02-07T18:05:44.095Z,3.70
2019-02-07T18:08:12.300Z,3.75
2019-02-07T18:10:40.709Z,3.68
2019-02-07T18:13:18.123Z,3.72
2019-02-07T18:15:46.638Z,3.75
2019-02-07T18:18:14.978Z,3.68
2019-02-07T18:20:43.069Z,3.68
2019-02-07T18:23:11.097Z,3.66
2019-02-07T18:25:38.984Z,3.63
2019-02-07T18:28:07.343Z,3.58
2019-02-07T18:30:35.412Z,3.64
2019-02-07T18:33:04.076Z,3.65
2019-02-07T18:35:32.100Z,3.64
2019-02-07T18:37:59.949Z,3.72
2019-02-07T18:40:28.178Z,3.72
2019-02-07T18:42:56.024Z,3.68
2019-02-07T18:45:24.486Z,3.69
2019-02-07T18:47:52.590Z,3.70
2019-02-07T18:50:31.756Z,3.75
2019-02-07T18:52:59.771Z,3.70
2019-02-07T18:55:27.754Z,3.69
2019-02-07T18:57:55.789Z,3.76
2019-02-07T19:00:25.785Z,3.75
2019-02-07T19:02:54.058Z,3.88
2019-02-07T19:05:22.347Z,3.91
2019-02-07T19:07:50.628Z,3.91
2019-02-07T19:10:20.369Z,4.00
2019-02-07T19:12:48.563Z,3.95
2019-02-07T19:15:26.724Z,4.06
2019-02-07T19:17:54.675Z,3.96
2019-02-07T19:20:22.603Z,3.93
2019-02-07T19:22:50.561Z,3.95
2019-02-07T19:25:18.676Z,3.85
2019-02-07T19:27:47.252Z,3.89
2019-02-07T19:30:23.846Z,3.96
2019-02-07T19:32:52.172Z,3.93
2019-02-07T19:35:20.116Z,3.95
2019-02-07T19:37:48.379Z,4.04
2019-02-07T19:40:16.557Z,4.06
2019-02-07T19:42:44.453Z,4.01
2019-02-07T19:45:13.782Z,3.96
2019-02-07T19:47:41.874Z,4.07
2019-02-07T19:50:12.682Z,4.06
2019-02-07T19:52:40.951Z,4.07
2019-02-07T19:55:11.767Z,3.94
2019-02-07T19:57:39.738Z,4.00
2019-02-07T20:00:10.981Z,3.96
2019-02-07T20:02:39.662Z,3.99
2019-02-07T20:05:08.816Z,4.03
2019-02-07T20:07:36.792Z,3.95
2019-02-07T20:10:07.851Z,3.99
2019-02-07T20:12:35.688Z,4.01
2019-02-07T20:15:07.795Z,4.01
2019-02-07T20:17:39.170Z,4.04
2019-02-07T20:20:08.750Z,3.99
2019-02-07T20:22:36.604Z,3.98
2019-02-07T20:25:05.953Z,3.97
2019-02-07T20:27:33.884Z,4.00
2019-02-07T20:30:02.263Z,3.98
2019-02-07T20:32:30.802Z,4.02
2019-02-07T20:34:58.906Z,3.94
2019-02-07T20:37:26.777Z,3.98
2019-02-07T20:39:54.559Z,3.93
2019-02-07T20:42:22.442Z,4.03
2019-02-07T20:44:50.960Z,3.93
2019-02-07T20:47:18.709Z,3.92
2019-02-07T20:49:46.579Z,3.94
2019-02-07T20:52:14.557Z,3.91
2019-02-07T20:54:43.347Z,4.01
2019-02-07T20:57:11.375Z,4.19
2019-02-07T20:59:39.361Z,4.21
2019-02-07T21:02:07.374Z,4.18
2019-02-07T21:04:36.395Z,4.13
2019-02-07T21:07:04.564Z,4.12
2019-02-07T21:09:32.418Z,4.03
2019-02-07T21:12:00.496Z,4.04
2019-02-07T21:14:28.362Z,4.08
2019-02-07T21:16:56.362Z,4.11
2019-02-07T21:19:24.955Z,4.01
2019-02-07T21:21:52.856Z,3.99
2019-02-07T21:24:21.005Z,4.00
2019-02-07T21:26:49.209Z,3.98
2019-02-07T21:29:17.676Z,3.98
2019-02-07T21:31:45.526Z,3.98
2019-02-07T21:34:13.359Z,4.03
2019-02-07T21:36:41.177Z,4.05
2019-02-07T21:39:10.690Z,4.01
2019-02-07T21:41:38.560Z,4.02
2019-02-07T21:44:06.511Z,3.99
2019-02-07T21:46:34.542Z,3.96
2019-02-07T21:49:02.721Z,3.93
2019-02-07T21:51:33.943Z,3.91
2019-02-07T21:54:01.823Z,3.90
2019-02-07T21:56:29.682Z,3.89
2019-02-07T21:58:57.697Z,3.91
2019-02-07T22:01:25.569Z,3.93
2019-02-07T22:03:53.579Z,3.93
2019-02-07T22:06:21.556Z,3.94
2019-02-07T22:08:49.527Z,3.97
2019-02-07T22:11:17.388Z,3.94
2019-02-07T22:13:45.246Z,3.93
2019-02-07T22:16:13.159Z,3.94
2019-02-07T22:18:41.301Z,3.96
2019-02-07T22:21:09.227Z,3.98
2019-02-07T22:23:37.064Z,4.01
2019-02-07T22:26:05.066Z,4.04
2019-02-07T22:28:32.913Z,4.05
2019-02-07T22:31:00.805Z,4.06
2019-02-07T22:33:28.559Z,4.09
2019-02-07T22:35:56.683Z,4.11
2019-02-07T22:38:24.631Z,4.11
2019-02-07T22:40:53.374Z,4.12
2019-02-07T22:43:21.219Z,4.11
2019-02-07T22:45:49.097Z,4.12
2019-02-07T22:48:16.933Z,4.09
2019-02-07T22:50:44.900Z,4.08
2019-02-07T22:53:15.567Z,4.07
2019-02-07T22:55:43.984Z,4.05
2019-02-07T22:58:12.136Z,4.03
2019-02-07T23:01:20.414Z,4.02
2019-02-07T23:04:03.618Z,4.02
2019-02-07T23:06:31.670Z,4.00
2019-02-07T23:09:00.014Z,4.04
2019-02-07T23:11:28.277Z,4.01
2019-02-07T23:13:56.343Z,3.99
2019-02-07T23:16:24.625Z,3.98
2019-02-07T23:18:52.883Z,3.99
2019-02-07T23:21:21.674Z,3.96
2019-02-07T23:23:49.831Z,3.93
2019-02-07T23:26:17.906Z,3.94
2019-02-07T23:28:46.063Z,3.96
2019-02-07T23:31:14.315Z,4.00
2019-02-07T23:33:42.970Z,4.01
2019-02-07T23:36:11.056Z,4.04
2019-02-07T23:38:39.083Z,4.06
2019-02-07T23:41:10.358Z,4.01
2019-02-07T23:43:45.958Z,4.02
2019-02-07T23:46:11.173Z,4.04
2019-02-07T23:48:40.455Z,4.02
2019-02-07T23:51:08.594Z,4.03
2019-02-07T23:53:36.543Z,4.04
2019-02-07T23:56:05.747Z,4.05
2019-02-07T23:58:33.595Z,4.08
